Time;durP1;ratioP1;P1;durP2;ratioP2;P2;SDS_P1;SDS_P2;PMS_P1;PMS_P2;Temp;Humidity;BMP_temperature;BMP_pressure;BME280_temperature;BME280_humidity;BME280_pressure;Samples;Min_cycle;Max_cycle;Signal;HPM_P1;HPM_P2
2021/07/24 00:00:57;;;;;;;14.00;12.63;;;;;;;21.68;53.80;95018.56;5010606;28;20034;-69
2021/07/24 00:03:23;;;;;;;14.07;12.73;;;;;;;21.78;54.29;95034.88;5007033;28;20563;-69
2021/07/24 00:05:49;;;;;;;15.43;13.82;;;;;;;21.74;54.78;95034.06;4991657;28;20027;-68
2021/07/24 00:08:14;;;;;;;15.43;14.02;;;;;;;21.44;54.53;94976.66;5008944;28;20045;-69
2021/07/24 00:10:39;;;;;;;14.85;13.32;;;;;;;21.53;54.48;95001.44;5009336;28;20045;-69
2021/07/24 00:13:05;;;;;;;15.48;14.07;;;;;;;21.53;55.42;95033.94;5009837;28;20037;-69
2021/07/24 00:15:30;;;;;;;15.45;13.98;;;;;;;21.37;55.00;95009.06;5010159;28;20045;-69
2021/07/24 00:17:56;;;;;;;15.43;13.85;;;;;;;21.36;55.44;94994.78;5011726;28;20094;-69
2021/07/24 00:20:22;;;;;;;14.65;13.35;;;;;;;21.38;55.52;94997.09;5010243;28;20046;-69
2021/07/24 00:22:47;;;;;;;15.70;14.13;;;;;;;21.23;55.77;94972.63;5009757;28;20280;-69
2021/07/24 00:25:12;;;;;;;16.27;13.75;;;;;;;20.98;55.90;94937.28;5009811;28;20096;-69
2021/07/24 00:27:38;;;;;;;16.30;14.88;;;;;;;21.24;55.79;94974.19;5010095;28;20041;-68
2021/07/24 00:30:04;;;;;;;23.77;15.07;;;;;;;21.17;55.66;94957.13;5009058;28;20022;-68
2021/07/24 00:32:29;;;;;;;15.82;14.18;;;;;;;21.39;55.91;94995.94;5011075;28;20480;-69
2021/07/24 00:34:55;;;;;;;15.45;14.13;;;;;;;21.15;56.16;94962.16;5008578;28;20435;-69
2021/07/24 00:37:20;;;;;;;16.85;15.20;;;;;;;21.17;55.79;94957.91;5010421;28;20042;-68
2021/07/24 00:39:46;;;;;;;15.65;14.05;;;;;;;21.17;56.09;94967.94;5009943;28;20045;-69
2021/07/24 00:42:17;;;;;;;15.70;14.30;;;;;;;21.32;55.72;94976.97;5009538;28;20123;-69
2021/07/24 00:44:45;;;;;;;16.83;13.85;;;;;;;21.35;55.63;94984.34;5011937;28;20547;-70
2021/07/24 00:47:23;;;;;;;16.30;14.80;;;;;;;21.19;55.93;94958.31;5009356;28;20100;-69
2021/07/24 00:49:50;;;;;;;15.43;14.10;;;;;;;21.03;55.87;94955.84;5009766;28;20093;-69
2021/07/24 00:52:16;;;;;;;17.55;14.95;;;;;;;21.22;55.95;94970.28;5009303;28;20049;-69
2021/07/24 00:54:42;;;;;;;17.42;15.68;;;;;;;21.20;56.07;94970.69;5004419;28;20604;-69
2021/07/24 00:57:08;;;;;;;16.92;15.45;;;;;;;21.06;56.03;94953.56;4989369;28;20027;-68
2021/07/24 00:59:35;;;;;;;14.95;13.55;;;;;;;20.96;56.44;94953.09;5011761;28;20451;-69
2021/07/24 01:02:00;;;;;;;16.52;14.93;;;;;;;21.19;56.20;94984.56;5009146;28;20034;-69
2021/07/24 01:04:26;;;;;;;18.23;16.33;;;;;;;21.14;56.68;94974.91;5008935;28;20042;-69
2021/07/24 01:06:51;;;;;;;16.73;14.95;;;;;;;20.73;56.86;94912.00;5009544;28;20034;-69
2021/07/24 01:09:17;;;;;;;16.75;15.15;;;;;;;20.74;57.20;94919.72;5007820;28;20025;-69
2021/07/24 01:11:43;;;;;;;18.63;15.35;;;;;;;20.88;57.30;94935.28;4991818;28;20030;-69
2021/07/24 01:14:11;;;;;;;17.85;15.98;;;;;;;20.89;57.56;94944.97;5006538;28;20042;-68
2021/07/24 01:16:37;;;;;;;16.67;15.10;;;;;;;20.96;57.62;94955.03;5009482;28;20030;-69
2021/07/24 01:19:02;;;;;;;16.55;15.15;;;;;;;20.93;57.62;94939.56;5008871;28;20048;-69
2021/07/24 01:21:28;;;;;;;17.98;16.20;;;;;;;20.65;57.72;94905.75;5009323;28;20368;-69
2021/07/24 01:23:54;;;;;;;17.48;15.85;;;;;;;20.70;57.74;94913.50;5011054;28;20105;-68
2021/07/24 01:26:30;;;;;;;16.77;15.15;;;;;;;20.92;57.54;94940.72;5008320;28;20117;-68
2021/07/24 01:28:56;;;;;;;16.67;14.80;;;;;;;20.68;57.72;94904.25;5009484;28;20096;-68
2021/07/24 01:31:22;;;;;;;18.48;16.70;;;;;;;20.89;57.70;94938.78;5009246;28;20400;-68
2021/07/24 01:33:47;;;;;;;17.73;15.45;;;;;;;20.71;57.67;94912.34;5008642;28;20041;-69
2021/07/24 01:36:13;;;;;;;16.55;14.75;;;;;;;20.69;57.80;94901.16;5028732;28;20076;-69
2021/07/24 01:38:42;;;;;;;20.05;17.00;;;;;;;20.77;57.67;94923.59;5030495;28;20064;-69
2021/07/24 01:41:09;;;;;;;17.70;15.98;;;;;;;20.97;57.82;94935.72;5026172;23;20060;-70
2021/07/24 01:43:35;;;;;;;18.90;17.10;;;;;;;20.94;57.77;94939.19;4988773;28;20092;-70
2021/07/24 01:46:00;;;;;;;16.88;15.18;;;;;;;20.91;57.79;94933.75;4981555;28;20488;-70
2021/07/24 01:48:52;;;;;;;20.30;16.98;;;;;;;20.89;58.19;94942.25;4972368;28;20690;-70
2021/07/24 01:54:22;;;;;;;17.38;15.48;;;;;;;20.82;58.63;94944.09;4988516;28;20261;-71
2021/07/24 01:56:48;;;;;;;18.10;16.30;;;;;;;20.82;58.85;94949.50;4971617;28;20389;-70
2021/07/24 01:59:15;;;;;;;18.50;16.02;;;;;;;20.77;58.73;94945.22;4987531;28;20073;-70
2021/07/24 02:01:40;;;;;;;19.17;17.27;;;;;;;20.75;59.07;94942.91;4976413;28;20055;-70
2021/07/24 02:04:12;;;;;;;18.08;16.08;;;;;;;20.72;58.93;94954.44;4976162;28;20035;-70
2021/07/24 02:06:41;;;;;;;20.10;16.95;;;;;;;20.66;59.03;94942.44;4984546;28;20139;-70
2021/07/24 02:09:06;;;;;;;17.23;15.60;;;;;;;20.58;59.51;94943.53;4970217;28;20022;-70
2021/07/24 02:11:32;;;;;;;20.52;16.55;;;;;;;20.51;59.50;94933.41;4991139;28;20022;-70
2021/07/24 02:13:58;;;;;;;18.05;16.45;;;;;;;20.47;59.43;94937.22;4988744;28;20455;-70
2021/07/24 02:16:23;;;;;;;17.63;15.93;;;;;;;20.44;59.64;94935.25;4989113;28;20067;-70
2021/07/24 02:18:49;;;;;;;19.67;17.55;;;;;;;20.38;60.20;94931.34;4988415;28;20070;-72
2021/07/24 02:21:15;;;;;;;18.80;17.08;;;;;;;20.30;60.32;94921.63;4987755;28;20029;-70
2021/07/24 02:23:40;;;;;;;18.95;17.02;;;;;;;20.34;60.19;94939.41;5005618;28;20031;-70
2021/07/24 02:26:08;;;;;;;19.08;17.15;;;;;;;20.26;60.00;94918.88;4989120;28;20527;-70
2021/07/24 02:28:33;;;;;;;18.55;16.58;;;;;;;20.23;60.60;94928.50;5003834;28;20108;-69
2021/07/24 02:30:59;;;;;;;19.23;17.50;;;;;;;20.20;60.88;94931.94;4988805;28;20039;-70
2021/07/24 02:33:24;;;;;;;20.00;17.85;;;;;;;20.22;60.82;94937.75;4985232;28;20067;-71
2021/07/24 02:35:49;;;;;;;21.13;18.65;;;;;;;20.16;60.76;94941.13;4971164;28;20026;-71
2021/07/24 02:38:15;;;;;;;18.83;16.95;;;;;;;20.16;61.31;94950.00;4990792;28;20040;-70
2021/07/24 02:40:40;;;;;;;19.95;17.85;;;;;;;20.16;61.20;94954.63;4992365;28;20046;-70
2021/07/24 02:43:06;;;;;;;20.35;18.17;;;;;;;20.13;61.25;94944.59;4991810;28;20026;-70
2021/07/24 02:45:31;;;;;;;20.05;18.05;;;;;;;20.04;61.33;94942.19;4991270;28;20046;-71
2021/07/24 02:47:57;;;;;;;22.48;19.15;;;;;;;20.07;61.16;94951.47;4993544;28;20089;-70
2021/07/24 02:50:22;;;;;;;18.92;17.02;;;;;;;19.97;61.95;94955.59;4992192;28;20043;-71
2021/07/24 02:52:47;;;;;;;18.60;16.90;;;;;;;20.00;61.93;94958.31;4992011;28;20034;-70
2021/07/24 02:55:13;;;;;;;20.48;18.15;;;;;;;20.03;61.78;94964.94;4992351;28;20069;-71
2021/07/24 02:57:38;;;;;;;20.17;17.77;;;;;;;20.02;61.70;94968.78;4987737;28;20049;-70
2021/07/24 03:00:05;;;;;;;19.85;17.77;;;;;;;19.96;61.93;94965.63;4974786;28;20106;-70
2021/07/24 03:02:30;;;;;;;18.60;16.60;;;;;;;20.11;61.67;94960.38;4972534;28;20073;-70
2021/07/24 03:04:56;;;;;;;20.70;18.65;;;;;;;20.05;61.77;94969.94;4971377;28;20548;-70
2021/07/24 03:07:21;;;;;;;19.20;17.25;;;;;;;19.95;62.35;94955.19;4983780;28;20046;-71
2021/07/24 03:09:47;;;;;;;19.60;17.48;;;;;;;20.00;62.22;94961.03;5008023;28;20037;-70
2021/07/24 03:12:13;;;;;;;20.90;18.80;;;;;;;19.98;62.28;94959.84;4991487;28;20472;-72
2021/07/24 03:14:38;;;;;;;19.95;17.95;;;;;;;20.03;62.52;94964.94;4974787;28;20103;-70
2021/07/24 03:17:03;;;;;;;22.00;18.17;;;;;;;19.98;62.29;94957.94;4973113;28;20053;-70
2021/07/24 03:19:29;;;;;;;19.02;17.10;;;;;;;20.01;62.98;94967.19;4972189;28;20051;-69
2021/07/24 03:21:54;;;;;;;18.33;16.58;;;;;;;20.12;62.61;94970.81;4977986;28;20408;-70
2021/07/24 03:24:19;;;;;;;21.30;18.80;;;;;;;20.21;62.44;94962.41;4991737;28;20560;-70
2021/07/24 03:26:45;;;;;;;19.63;17.47;;;;;;;20.33;61.80;94961.41;4993618;28;20022;-70
2021/07/24 03:29:10;;;;;;;20.02;17.98;;;;;;;20.46;61.41;94978.88;4974887;28;20697;-70
2021/07/24 03:31:35;;;;;;;20.10;18.17;;;;;;;20.32;61.25;94973.31;4984713;28;20459;-70
2021/07/24 03:34:01;;;;;;;20.05;18.15;;;;;;;20.31;61.34;94960.97;4993379;28;20038;-71
2021/07/24 03:36:26;;;;;;;23.13;18.85;;;;;;;20.32;61.21;94973.31;4996106;28;20105;-70
2021/07/24 03:38:52;;;;;;;20.77;18.58;;;;;;;20.27;61.76;94960.97;4993745;28;20053;-70
2021/07/24 03:41:17;;;;;;;19.35;17.50;;;;;;;20.32;61.55;94946.31;4991615;28;20122;-70
2021/07/24 03:43:43;;;;;;;19.98;17.98;;;;;;;20.22;61.38;94929.66;5006466;28;20404;-71
2021/07/24 03:46:15;;;;;;;19.15;17.23;;;;;;;20.07;62.17;94963.06;4991602;28;20030;-70
2021/07/24 03:48:42;;;;;;;22.50;17.55;;;;;;;19.73;63.74;94956.84;4998106;28;20420;-70
2021/07/24 03:51:14;;;;;;;21.30;19.08;;;;;;;19.99;63.08;94947.91;5002782;28;20079;-70
2021/07/24 03:53:41;;;;;;;20.67;17.33;;;;;;;20.22;62.42;94937.75;5012576;28;20022;-70
2021/07/24 03:56:16;;;;;;;20.88;15.90;;;;;;;20.44;61.51;94941.44;5010849;28;20030;-70
2021/07/24 03:58:46;;;;;;;17.85;16.25;;;;;;;20.65;61.03;94940.13;5011027;28;20045;-70
2021/07/24 04:01:12;;;;;;;18.48;16.55;;;;;;;20.73;60.51;94936.34;5009946;28;20084;-70
2021/07/24 04:03:38;;;;;;;20.33;18.20;;;;;;;20.63;60.05;94913.47;5000035;28;20452;-70
2021/07/24 04:06:06;;;;;;;19.45;17.38;;;;;;;20.77;60.18;94927.06;4992922;28;20022;-70
2021/07/24 04:08:31;;;;;;;19.75;17.65;;;;;;;20.82;59.85;94917.06;4972129;28;20043;-70
2021/07/24 04:10:57;;;;;;;19.02;16.92;;;;;;;21.08;59.41;94937.72;4971765;28;20405;-69
2021/07/24 04:13:23;;;;;;;22.75;17.77;;;;;;;21.24;59.24;94927.41;4980644;28;20038;-70
2021/07/24 04:15:48;;;;;;;18.23;16.50;;;;;;;21.33;58.48;94927.09;4991043;28;20046;-71
2021/07/24 04:18:14;;;;;;;16.58;14.93;;;;;;;21.59;58.21;94937.69;4989418;28;20507;-70
2021/07/24 04:20:41;;;;;;;16.80;15.23;;;;;;;21.58;58.12;94927.25;4973284;28;20472;-71
2021/07/24 04:23:06;;;;;;;19.27;15.98;;;;;;;21.67;58.00;94936.56;4987147;28;20038;-71
2021/07/24 04:25:32;;;;;;;18.27;16.58;;;;;;;21.82;57.23;94915.75;4978982;28;20043;-71
2021/07/24 04:27:57;;;;;;;16.33;14.80;;;;;;;22.06;56.54;94930.56;4978405;28;20035;-71
2021/07/24 04:30:23;;;;;;;17.20;15.60;;;;;;;22.22;56.03;94933.72;4988483;28;20476;-72
2021/07/24 04:32:48;;;;;;;17.35;15.73;;;;;;;22.21;55.78;94920.53;4973122;28;20386;-71
2021/07/24 04:35:14;;;;;;;18.00;15.38;;;;;;;22.21;55.76;94926.72;5000175;28;20037;-71
2021/07/24 04:37:39;;;;;;;16.05;14.52;;;;;;;22.38;55.96;94936.06;5010743;28;20046;-71
2021/07/24 04:40:05;;;;;;;14.20;13.00;;;;;;;22.49;55.58;94925.25;5009912;28;20124;-71
2021/07/24 04:42:32;;;;;;;16.30;14.55;;;;;;;22.74;54.50;94931.47;5005467;28;20050;-71
2021/07/24 04:44:57;;;;;;;15.55;13.95;;;;;;;22.96;54.14;94931.50;4992922;28;20461;-72
2021/07/24 04:47:22;;;;;;;15.90;14.30;;;;;;;23.04;53.75;94930.34;5005656;28;20085;-71
2021/07/24 04:49:50;;;;;;;15.57;14.10;;;;;;;23.17;53.00;94927.97;4971788;28;20043;-71
2021/07/24 04:52:16;;;;;;;16.98;14.48;;;;;;;23.14;52.53;94929.56;4979626;28;20026;-71
2021/07/24 04:54:43;;;;;;;19.40;14.35;;;;;;;23.34;51.88;94911.69;4990060;28;20099;-70
2021/07/24 04:57:10;;;;;;;15.38;13.82;;;;;;;23.45;51.45;94905.47;4988033;28;20400;-70
2021/07/24 04:59:37;;;;;;;16.00;14.52;;;;;;;23.51;51.17;94903.88;4992344;28;20080;-70
2021/07/24 05:02:03;;;;;;;15.60;14.15;;;;;;;23.67;50.76;94901.53;4990292;28;20109;-70
2021/07/24 05:04:28;;;;;;;16.65;14.32;;;;;;;23.73;50.71;94902.66;4989394;28;20396;-70
2021/07/24 05:06:55;;;;;;;15.57;14.07;;;;;;;23.71;50.88;94896.88;5016471;28;20203;-70
2021/07/24 05:09:21;;;;;;;16.35;14.65;;;;;;;23.80;51.15;94918.16;4992270;28;20037;-70
2021/07/24 05:11:46;;;;;;;15.55;14.15;;;;;;;23.79;50.38;94911.94;5011813;28;20034;-72
2021/07/24 05:14:12;;;;;;;15.15;13.63;;;;;;;23.91;50.31;94902.59;5009488;28;20038;-70
2021/07/24 05:16:37;;;;;;;15.32;13.93;;;;;;;24.19;49.85;94923.41;4997700;28;20034;-70
2021/07/24 05:19:02;;;;;;;16.27;13.93;;;;;;;24.38;49.41;94925.66;4989183;28;20026;-71
2021/07/24 05:21:29;;;;;;;15.70;14.30;;;;;;;24.43;49.19;94918.25;4995445;28;20245;-70
2021/07/24 05:23:54;;;;;;;15.20;13.73;;;;;;;24.59;49.04;94918.53;4991660;28;20433;-71
2021/07/24 05:26:19;;;;;;;14.13;12.90;;;;;;;24.63;49.05;94917.34;4989484;28;20060;-71
2021/07/24 05:28:48;;;;;;;17.23;14.15;;;;;;;24.83;48.42;94917.59;4989689;28;20089;-71
2021/07/24 05:31:15;;;;;;;15.80;14.50;;;;;;;24.96;47.68;94919.81;4989712;28;20049;-70
2021/07/24 05:33:41;;;;;;;16.10;14.80;;;;;;;25.05;47.57;94911.97;4984195;28;20063;-69
2021/07/24 05:36:06;;;;;;;15.65;14.27;;;;;;;25.03;47.69;94908.84;4970369;28;20109;-63
2021/07/24 05:38:31;;;;;;;17.83;14.02;;;;;;;25.09;47.82;94890.97;4990897;28;20512;-68
2021/07/24 05:41:00;;;;;;;18.25;14.40;;;;;;;25.16;47.54;94877.28;4989225;28;20117;-68
2021/07/24 05:43:25;;;;;;;16.20;14.63;;;;;;;25.35;47.16;94886.81;4988956;28;20047;-69
2021/07/24 05:45:51;;;;;;;14.80;13.60;;;;;;;25.30;46.92;94885.31;4989146;28;20081;-68
2021/07/24 05:48:16;;;;;;;15.48;13.95;;;;;;;25.31;47.07;94878.69;4988565;28;20030;-67
2021/07/24 05:50:42;;;;;;;14.88;13.55;;;;;;;25.28;47.44;94867.81;4989636;28;20484;-68
2021/07/24 05:53:07;;;;;;;13.65;12.43;;;;;;;25.47;47.30;94864.50;4972598;28;20039;-67
2021/07/24 05:55:32;;;;;;;15.43;13.73;;;;;;;25.67;46.57;94864.66;4981093;28;20038;-68
2021/07/24 05:57:58;;;;;;;15.80;14.23;;;;;;;25.74;46.28;94858.34;4982784;28;20035;-70
2021/07/24 06:00:23;;;;;;;16.25;13.82;;;;;;;26.00;46.13;94865.84;4971633;28;20035;-70
2021/07/24 06:02:48;;;;;;;16.23;14.68;;;;;;;26.10;45.50;94864.94;4990556;28;20046;-70
2021/07/24 06:05:14;;;;;;;16.27;14.30;;;;;;;26.49;44.84;94871.78;4982891;28;20039;-70
2021/07/24 06:07:39;;;;;;;14.63;13.23;;;;;;;26.81;44.58;94874.00;4992927;28;20528;-69
2021/07/24 06:10:05;;;;;;;17.98;13.95;;;;;;;27.16;43.94;94885.53;4989053;28;20121;-69
2021/07/24 06:12:30;;;;;;;14.88;13.45;;;;;;;27.41;43.02;94874.94;4991275;28;20046;-69
2021/07/24 06:14:55;;;;;;;16.13;13.95;;;;;;;27.23;41.92;94871.78;4994864;28;20026;-70
2021/07/24 06:17:21;;;;;;;16.50;14.85;;;;;;;27.14;43.02;94874.25;4992837;28;20046;-69
2021/07/24 06:19:46;;;;;;;15.00;13.52;;;;;;;27.19;42.19;94847.25;4978925;28;20039;-69
2021/07/24 06:22:11;;;;;;;15.90;13.88;;;;;;;27.66;42.18;94901.00;4972814;28;20062;-68
2021/07/24 06:24:37;;;;;;;16.13;14.55;;;;;;;27.37;41.78;94898.03;4973189;28;20516;-69
2021/07/24 06:27:03;;;;;;;15.95;14.13;;;;;;;27.34;42.37;94898.88;4975068;28;20046;-68
2021/07/24 06:29:28;;;;;;;16.83;13.60;;;;;;;27.23;42.75;94890.09;4973593;28;20047;-68
2021/07/24 06:31:53;;;;;;;14.52;13.27;;;;;;;27.18;42.86;94891.38;4987721;28;20035;-69
2021/07/24 06:34:19;;;;;;;15.32;13.82;;;;;;;27.00;43.11;94897.09;4991559;28;20041;-68
2021/07/24 06:36:44;;;;;;;15.02;13.73;;;;;;;26.90;43.20;94889.84;5000508;28;20040;-67
2021/07/24 06:39:10;;;;;;;16.00;14.48;;;;;;;26.87;43.11;94888.72;5027242;28;20061;-67
2021/07/24 06:41:38;;;;;;;15.18;13.70;;;;;;;26.87;43.74;94904.31;5013862;28;20033;-67
2021/07/24 06:44:04;;;;;;;16.70;14.75;;;;;;;26.59;44.39;94900.84;5010176;28;20057;-68
2021/07/24 06:46:29;;;;;;;14.82;13.55;;;;;;;26.99;44.32;94924.81;5012302;28;20069;-67
2021/07/24 06:48:54;;;;;;;15.85;14.43;;;;;;;26.61;43.95;94930.44;5005191;28;20089;-69
2021/07/24 06:51:20;;;;;;;15.88;14.57;;;;;;;27.14;42.56;94939.78;4998590;28;20027;-68
2021/07/24 06:53:45;;;;;;;14.27;12.98;;;;;;;27.72;42.39;94934.88;4974240;28;20019;-68
2021/07/24 06:56:11;;;;;;;14.63;13.20;;;;;;;28.22;41.81;94928.41;5000911;28;20062;-69
2021/07/24 06:58:36;;;;;;;13.93;12.63;;;;;;;28.66;40.86;94924.34;4999432;28;20074;-68
2021/07/24 07:01:06;;;;;;;14.77;13.25;;;;;;;28.98;40.15;94933.78;4991928;28;20412;-69
2021/07/24 07:03:31;;;;;;;14.13;12.93;;;;;;;29.26;38.57;94946.78;5003172;28;20050;-70
2021/07/24 07:05:56;;;;;;;14.52;13.10;;;;;;;27.85;41.48;94954.16;4972601;28;20019;-67
2021/07/24 07:08:23;;;;;;;15.35;13.93;;;;;;;28.72;39.48;94955.47;4972357;28;20047;-68
2021/07/24 07:10:49;;;;;;;14.05;12.85;;;;;;;29.12;39.22;94957.31;4972573;28;20756;-64
2021/07/24 07:13:14;;;;;;;13.43;12.25;;;;;;;29.67;38.85;94955.56;4971974;28;20126;-67
2021/07/24 07:15:39;;;;;;;14.65;13.23;;;;;;;29.69;37.30;94972.34;4972582;28;20031;-66
2021/07/24 07:18:05;;;;;;;14.50;13.30;;;;;;;29.42;37.19;94967.13;4974398;28;20026;-65
2021/07/24 07:20:30;;;;;;;15.13;13.73;;;;;;;29.37;37.33;94943.75;4971838;28;20049;-65
2021/07/24 07:22:55;;;;;;;14.43;13.30;;;;;;;29.84;37.27;94995.44;4984903;28;20043;-66
2021/07/24 07:25:21;;;;;;;14.18;12.40;;;;;;;28.68;38.69;94992.31;4991467;28;20046;-71
2021/07/24 07:27:46;;;;;;;15.02;13.23;;;;;;;28.55;39.49;94994.16;4986251;28;20045;-66
2021/07/24 07:30:13;;;;;;;14.70;13.48;;;;;;;29.13;37.97;94962.38;4972693;28;20051;-69
2021/07/24 07:32:39;;;;;;;14.50;13.18;;;;;;;29.56;37.24;95002.44;4993255;28;20026;-67
2021/07/24 07:35:05;;;;;;;15.30;13.82;;;;;;;28.26;39.86;95008.44;4993287;28;20045;-71
2021/07/24 07:37:31;;;;;;;16.02;14.35;;;;;;;27.22;42.61;95036.78;4995008;28;20082;-68
2021/07/24 07:39:56;;;;;;;16.55;14.15;;;;;;;25.75;46.57;95050.66;4985066;28;20141;-68
2021/07/24 07:42:21;;;;;;;14.73;13.52;;;;;;;26.21;46.46;95065.72;4973307;28;20034;-68
2021/07/24 07:44:47;;;;;;;14.35;13.15;;;;;;;25.60;48.30;95079.94;4993250;28;20026;-72
2021/07/24 07:47:12;;;;;;;14.80;13.40;;;;;;;26.34;46.76;95102.19;4990733;28;20038;-69
2021/07/24 07:49:38;;;;;;;14.75;13.40;;;;;;;27.13;45.83;95091.91;4990658;28;20504;-68
2021/07/24 07:52:04;;;;;;;15.90;13.43;;;;;;;26.06;47.72;95097.84;4990969;28;20035;-68
2021/07/24 07:54:31;;;;;;;14.70;13.50;;;;;;;26.10;48.52;95098.56;4990254;28;20491;-67
2021/07/24 07:57:05;;;;;;;16.05;13.75;;;;;;;26.40;47.05;95079.53;4993011;28;20018;-69
2021/07/24 07:59:32;;;;;;;15.88;14.20;;;;;;;25.63;48.56;95100.91;4991134;28;20035;-69
2021/07/24 08:01:57;;;;;;;15.50;13.85;;;;;;;24.62;51.46;95105.41;4991457;28;20480;-73
2021/07/24 08:04:22;;;;;;;14.07;12.98;;;;;;;25.52;49.48;95084.66;4990066;28;20101;-71
2021/07/24 08:06:48;;;;;;;14.70;13.48;;;;;;;26.62;47.63;95079.31;4990985;28;20034;-72
2021/07/24 08:09:13;;;;;;;16.00;14.43;;;;;;;26.48;47.52;95071.31;4989838;28;20396;-71
2021/07/24 08:11:39;;;;;;;14.82;13.43;;;;;;;26.76;46.95;95065.47;4993133;28;20077;-73
2021/07/24 08:14:04;;;;;;;15.98;14.30;;;;;;;27.27;45.10;95071.81;4990387;28;20066;-73
2021/07/24 08:16:29;;;;;;;15.73;13.95;;;;;;;26.29;47.13;95073.41;4989412;28;20096;-74
2021/07/24 08:18:55;;;;;;;15.65;14.00;;;;;;;26.06;47.88;95063.16;4990263;28;20034;-73
2021/07/24 08:21:20;;;;;;;15.23;13.88;;;;;;;25.84;47.63;95048.97;4990319;28;20045;-73
2021/07/24 08:23:46;;;;;;;15.63;14.13;;;;;;;27.01;45.55;95046.03;4990692;28;20026;-74
2021/07/24 08:26:11;;;;;;;16.63;13.82;;;;;;;27.14;44.89;95046.28;4990560;28;20034;-72
2021/07/24 08:28:37;;;;;;;15.88;14.40;;;;;;;27.60;44.47;95040.06;5005611;28;20038;-72
2021/07/24 08:31:02;;;;;;;15.98;14.43;;;;;;;26.58;46.44;95043.13;4991501;28;20047;-75
2021/07/24 08:33:28;;;;;;;14.32;12.77;;;;;;;26.47;47.08;95034.31;4990919;28;20030;-73
2021/07/24 08:35:56;;;;;;;14.32;13.13;;;;;;;27.23;46.17;95034.81;4992109;28;20037;-73
2021/07/24 08:38:22;;;;;;;15.82;14.25;;;;;;;26.60;46.42;95027.09;4990447;28;20049;-73
2021/07/24 08:40:48;;;;;;;15.57;13.95;;;;;;;26.58;46.59;95038.44;4990082;28;20054;-75
2021/07/24 08:43:14;;;;;;;15.02;13.70;;;;;;;26.64;47.10;95028.59;4989542;28;20050;-72
2021/07/24 08:45:40;;;;;;;15.63;13.73;;;;;;;26.91;46.61;95027.84;4989750;28;20039;-73
2021/07/24 08:48:06;;;;;;;16.30;13.88;;;;;;;26.95;46.26;95020.38;4991707;28;20394;-73
2021/07/24 08:50:33;;;;;;;15.70;14.10;;;;;;;27.11;46.41;95014.31;4994131;28;20037;-73
2021/07/24 08:53:04;;;;;;;15.68;14.13;;;;;;;26.47;47.99;95016.00;4975896;28;20047;-73
2021/07/24 08:55:29;;;;;;;15.30;13.77;;;;;;;26.10;47.88;94995.75;4976264;28;20390;-71
2021/07/24 08:57:58;;;;;;;15.85;14.27;;;;;;;26.07;47.87;94969.31;4970150;28;20039;-70
2021/07/24 09:00:24;;;;;;;16.08;14.40;;;;;;;25.75;50.29;95018.72;4970918;28;20042;-72
2021/07/24 09:02:52;;;;;;;17.88;16.25;;;;;;;25.42;51.12;95007.31;4973137;28;20050;-74
2021/07/24 09:05:18;;;;;;;15.02;13.55;;;;;;;25.68;50.99;95026.91;4969738;28;20046;-67
2021/07/24 09:07:49;;;;;;;15.30;13.75;;;;;;;25.87;51.49;95045.44;4982679;28;20038;-64
2021/07/24 09:10:16;;;;;;;15.57;14.15;;;;;;;26.09;51.51;95032.34;4981055;28;20039;-66
2021/07/24 09:12:43;;;;;;;15.95;14.35;;;;;;;26.39;50.62;95031.63;4974152;28;20031;-68
2021/07/24 09:15:12;;;;;;;18.98;14.10;;;;;;;26.68;50.50;95042.97;4991117;28;20034;-70
2021/07/24 09:17:37;;;;;;;15.02;13.65;;;;;;;26.77;49.88;95038.94;4989647;28;20060;-66
2021/07/24 09:20:04;;;;;;;15.50;13.80;;;;;;;26.95;49.20;95014.94;4996163;28;20417;-68
2021/07/24 09:22:31;;;;;;;15.27;13.88;;;;;;;27.43;48.38;95025.50;4988583;28;20031;-68
2021/07/24 09:25:13;;;;;;;16.42;13.43;;;;;;;27.96;47.94;95034.00;4989136;28;20038;-66
2021/07/24 09:27:41;;;;;;;14.45;12.98;;;;;;;28.44;46.83;95024.50;4989210;28;20030;-67
2021/07/24 09:30:10;;;;;;;13.80;12.45;;;;;;;28.99;45.17;95025.69;4990830;28;20026;-66
2021/07/24 09:32:36;;;;;;;15.52;12.68;;;;;;;28.96;44.58;95016.34;4989085;28;20125;-68
2021/07/24 09:35:01;;;;;;;15.55;14.05;;;;;;;29.63;42.48;95026.91;4988327;28;20544;-68
2021/07/24 09:37:32;;;;;;;15.80;12.25;;;;;;;29.98;42.22;95019.72;4988935;28;20042;-69
2021/07/24 09:40:24;;;;;;;13.00;11.90;;;;;;;29.89;41.77;95022.34;4981077;28;20122;-68
2021/07/24 09:42:49;;;;;;;14.05;12.68;;;;;;;29.59;41.65;95012.53;4972019;28;20038;-68
2021/07/24 09:45:15;;;;;;;13.13;11.95;;;;;;;29.31;42.84;95015.94;4988007;28;20052;-68
2021/07/24 09:47:40;;;;;;;13.05;12.05;;;;;;;26.69;47.38;95019.19;4970644;28;20106;-66
2021/07/24 09:50:10;;;;;;;13.07;11.98;;;;;;;27.99;45.11;95022.22;4984338;28;20125;-65
2021/07/24 09:52:52;;;;;;;13.23;11.93;;;;;;;27.52;45.61;95022.25;4987990;28;20045;-67
2021/07/24 09:55:20;;;;;;;12.93;11.77;;;;;;;26.93;48.57;95033.69;4984140;28;20120;-66
2021/07/24 09:57:46;;;;;;;13.48;11.60;;;;;;;27.06;47.39;95033.88;4974237;28;20082;-69
2021/07/24 10:00:23;;;;;;;14.23;11.88;;;;;;;27.46;47.38;95027.41;4989133;28;20054;-68
2021/07/24 10:03:06;;;;;;;13.07;11.85;;;;;;;27.59;46.63;95035.00;4990536;28;20018;-66
2021/07/24 10:05:39;;;;;;;13.75;12.52;;;;;;;27.43;47.10;95036.41;4990369;28;20049;-70
2021/07/24 10:08:12;;;;;;;12.63;11.52;;;;;;;28.08;46.64;95027.91;4988658;28;20076;-70
2021/07/24 10:10:40;;;;;;;12.65;11.43;;;;;;;26.52;48.46;95031.13;4984254;28;20515;-68
2021/07/24 10:13:12;;;;;;;13.65;12.48;;;;;;;26.05;50.56;95028.13;4969145;28;20057;-66
2021/07/24 10:15:39;;;;;;;;;;;;;;;26.01;50.68;95027.41;4973589;28;20034;-64
2021/07/24 10:18:06;;;;;;;14.98;13.77;;;;;;;26.36;50.13;95018.81;4990381;28;19941;-69
2021/07/24 10:20:34;;;;;;;13.20;12.05;;;;;;;25.60;50.75;95020.00;4988019;28;20034;-63
2021/07/24 10:23:00;;;;;;;13.70;12.45;;;;;;;25.29;51.62;95013.66;4983395;28;20034;-62
2021/07/24 10:25:25;;;;;;;13.23;12.00;;;;;;;26.28;49.68;94995.53;4998451;28;20049;-61
2021/07/24 10:27:52;;;;;;;13.27;11.90;;;;;;;26.81;48.70;94990.56;5007944;28;20085;-62
2021/07/24 10:30:27;;;;;;;12.98;11.98;;;;;;;27.11;47.66;94985.06;5007888;28;20095;-64
2021/07/24 10:32:54;;;;;;;14.00;12.68;;;;;;;27.07;47.58;94994.47;5009558;28;20029;-63
2021/07/24 10:35:39;;;;;;;13.40;12.10;;;;;;;27.26;46.07;94973.91;4998114;28;20396;-66
2021/07/24 10:38:28;;;;;;;13.95;12.52;;;;;;;27.02;45.86;94976.59;4988270;28;20070;-64
2021/07/24 10:40:54;;;;;;;14.43;12.60;;;;;;;27.25;46.34;94970.41;4974413;28;20101;-63
2021/07/24 10:43:58;;;;;;;13.43;12.10;;;;;;;27.25;44.84;94978.59;4968567;28;20272;-63
2021/07/24 10:46:50;;;;;;;14.05;12.65;;;;;;;27.25;45.37;94988.75;4978793;28;20148;-63
2021/07/24 10:49:21;;;;;;;14.15;12.70;;;;;;;27.43;44.80;94976.34;4979377;28;20050;-64
2021/07/24 10:51:53;;;;;;;;;;;;;;;26.68;47.21;94979.47;4985508;28;20046;-61
2021/07/24 10:54:19;;;;;;;13.90;12.63;;;;;;;27.37;45.36;94974.50;4986552;28;19925;-61
2021/07/24 10:56:44;;;;;;;13.20;12.10;;;;;;;28.30;43.67;94968.06;4970658;28;20022;-63
2021/07/24 10:59:24;;;;;;;13.20;12.00;;;;;;;29.31;41.89;94956.44;4972360;28;20134;-73
2021/07/24 11:01:51;;;;;;;13.27;12.18;;;;;;;29.11;40.98;94958.50;4986018;28;20042;-76
2021/07/24 11:04:35;;;;;;;13.63;12.32;;;;;;;29.39;40.18;94952.34;4989831;28;20083;-68
2021/07/24 11:07:13;;;;;;;12.40;11.27;;;;;;;30.40;39.41;94951.16;4992752;28;20042;-69
2021/07/24 11:09:40;;;;;;;13.05;12.05;;;;;;;30.01;39.23;94958.53;5011318;28;20042;-69
2021/07/24 11:12:08;;;;;;;13.27;12.18;;;;;;;30.04;38.91;94946.69;5013085;28;20021;-73
2021/07/24 11:14:42;;;;;;;12.68;11.48;;;;;;;29.52;40.78;94955.91;5010868;28;20129;-70
2021/07/24 11:17:12;;;;;;;11.55;10.48;;;;;;;30.69;38.85;94939.34;5011442;28;20038;-70
2021/07/24 11:19:50;;;;;;;12.02;10.85;;;;;;;29.14;40.25;94930.28;5023651;28;20034;-74